createdAt,value
2022-11-10T00:00:16.735Z,6.80
2022-11-10T00:02:43.370Z,6.70
2022-11-10T00:05:10.034Z,6.70
2022-11-10T00:07:36.706Z,6.70
2022-11-10T00:10:03.369Z,6.80
2022-11-10T00:12:30.050Z,6.80
2022-11-10T00:14:56.678Z,6.90
2022-11-10T00:17:23.648Z,6.50
2022-11-10T00:19:50.322Z,6.70
2022-11-10T00:22:17.002Z,6.90
2022-11-10T00:24:43.654Z,7.10
2022-11-10T00:27:10.332Z,7.10
2022-11-10T00:29:37.408Z,7.20
2022-11-10T00:32:04.051Z,7.10
2022-11-10T00:34:30.741Z,7.00
2022-11-10T00:36:57.387Z,6.60
2022-11-10T00:39:24.064Z,6.80
2022-11-10T00:41:50.743Z,6.40
2022-11-10T00:44:17.370Z,6.50
2022-11-10T00:46:44.139Z,6.40
2022-11-10T00:49:10.801Z,6.40
2022-11-10T00:51:37.481Z,6.50
2022-11-10T00:54:04.184Z,6.70
2022-11-10T00:56:30.833Z,6.60
2022-11-10T00:58:57.473Z,6.50
2022-11-10T01:01:24.246Z,6.50
2022-11-10T01:03:50.916Z,6.70
2022-11-10T01:06:17.543Z,6.60
2022-11-10T01:08:44.186Z,6.60
2022-11-10T01:11:10.841Z,6.70
2022-11-10T01:13:37.489Z,6.50
2022-11-10T01:16:04.139Z,6.60
2022-11-10T01:18:30.788Z,6.40
2022-11-10T01:20:57.502Z,6.30
2022-11-10T01:23:24.501Z,6.50
2022-11-10T01:25:51.300Z,6.70
2022-11-10T01:28:17.937Z,6.60
2022-11-10T01:30:44.576Z,6.60
2022-11-10T01:33:11.186Z,6.60
2022-11-10T01:35:37.848Z,6.70
2022-11-10T01:38:04.501Z,6.80
2022-11-10T01:40:31.201Z,6.80
2022-11-10T01:42:57.916Z,6.90
2022-11-10T01:45:24.547Z,7.10
2022-11-10T01:47:51.166Z,6.90
2022-11-10T01:50:17.776Z,6.90
2022-11-10T01:52:44.423Z,6.80
2022-11-10T01:55:11.101Z,6.90
2022-11-10T01:57:37.747Z,7.20
2022-11-10T02:00:04.404Z,7.20
2022-11-10T02:02:31.052Z,7.20
2022-11-10T02:04:57.721Z,7.30
2022-11-10T02:07:24.438Z,7.30
2022-11-10T02:09:51.078Z,7.30
2022-11-10T02:12:17.725Z,7.40
2022-11-10T02:14:44.388Z,7.50
2022-11-10T02:17:11.117Z,7.40
2022-11-10T02:19:37.772Z,7.20
2022-11-10T02:22:04.430Z,7.10
2022-11-10T02:24:31.103Z,7.20
2022-11-10T02:26:57.943Z,7.00
2022-11-10T02:29:24.589Z,7.10
2022-11-10T02:31:51.222Z,7.30
2022-11-10T02:34:17.876Z,7.30
2022-11-10T02:36:44.493Z,7.40
2022-11-10T02:39:11.156Z,7.50
2022-11-10T02:41:37.880Z,7.40
2022-11-10T02:44:04.555Z,7.50
2022-11-10T02:46:31.180Z,7.60
2022-11-10T02:48:57.827Z,7.50
2022-11-10T02:51:24.508Z,7.40
2022-11-10T02:53:51.373Z,7.20
2022-11-10T02:56:18.023Z,7.40
2022-11-10T02:58:44.695Z,7.40
2022-11-10T03:01:11.358Z,7.40
2022-11-10T03:03:38.042Z,6.80
2022-11-10T03:06:04.722Z,6.80
2022-11-10T03:08:31.376Z,6.50
2022-11-10T03:10:58.049Z,6.50
2022-11-10T03:13:25.006Z,6.60
2022-11-10T03:15:51.850Z,6.70
2022-11-10T03:18:18.478Z,6.80
2022-11-10T03:20:45.187Z,6.70
2022-11-10T03:23:11.884Z,6.80
2022-11-10T03:25:38.530Z,6.60
2022-11-10T03:28:05.214Z,6.60
2022-11-10T03:30:31.876Z,6.40
2022-11-10T03:32:58.537Z,6.10
2022-11-10T03:35:25.167Z,6.20
2022-11-10T03:37:51.803Z,6.60
2022-11-10T03:40:18.472Z,7.00
2022-11-10T03:42:45.137Z,6.90
2022-11-10T03:45:11.798Z,6.90
2022-11-10T03:47:38.443Z,7.20
2022-11-10T03:50:05.145Z,7.30
2022-11-10T03:52:31.826Z,7.20
2022-11-10T03:55:03.128Z,7.20
2022-11-10T03:57:30.286Z,7.10
2022-11-10T03:59:56.886Z,7.20
2022-11-10T04:02:23.547Z,7.40
2022-11-10T04:04:50.221Z,7.60
2022-11-10T04:07:16.889Z,7.70
2022-11-10T04:09:43.581Z,7.60
2022-11-10T04:12:10.212Z,7.40
2022-11-10T04:14:36.896Z,7.10
2022-11-10T04:17:03.519Z,7.10
2022-11-10T04:19:30.247Z,6.90
2022-11-10T04:21:56.878Z,7.00
2022-11-10T04:24:23.550Z,7.00
2022-11-10T04:26:50.219Z,7.10
2022-11-10T04:29:16.840Z,7.10
2022-11-10T04:31:43.557Z,6.80
2022-11-10T04:34:10.329Z,6.70
2022-11-10T04:36:36.993Z,6.70
2022-11-10T04:39:03.655Z,6.80
2022-11-10T04:41:30.300Z,7.10
2022-11-10T04:43:56.981Z,7.40
2022-11-10T04:46:23.649Z,7.60
2022-11-10T04:48:50.289Z,7.60
2022-11-10T04:51:16.980Z,7.60
2022-11-10T04:53:43.682Z,7.60
2022-11-10T04:56:10.397Z,7.50
2022-11-10T04:58:37.111Z,7.40
2022-11-10T05:01:03.772Z,7.60
2022-11-10T05:03:30.429Z,7.30
2022-11-10T05:05:57.056Z,7.50
2022-11-10T05:08:23.695Z,7.70
2022-11-10T05:10:51.074Z,7.60
2022-11-10T05:13:17.719Z,7.10
2022-11-10T05:15:44.460Z,7.00
2022-11-10T05:18:11.097Z,7.30
2022-11-10T05:20:37.786Z,7.60
2022-11-10T05:23:04.457Z,7.80
2022-11-10T05:25:31.094Z,7.90
2022-11-10T05:27:57.784Z,8.00
2022-11-10T05:30:24.432Z,7.80
2022-11-10T05:32:51.092Z,7.60
2022-11-10T05:35:17.726Z,7.80
2022-11-10T05:37:44.364Z,7.70
2022-11-10T05:40:11.079Z,7.60
2022-11-10T05:42:37.712Z,7.50
2022-11-10T05:45:04.399Z,7.20
2022-11-10T05:47:31.069Z,7.40
2022-11-10T05:52:43.446Z,7.80
2022-11-10T05:55:14.429Z,7.90
2022-11-10T05:57:41.079Z,7.90
2022-11-10T06:00:07.731Z,7.60
2022-11-10T06:02:34.411Z,7.60
2022-11-10T06:05:01.163Z,7.50
2022-11-10T06:07:27.784Z,7.40
2022-11-10T06:09:54.470Z,7.60
2022-11-10T06:12:21.143Z,7.70
2022-11-10T06:14:47.800Z,7.90
2022-11-10T06:17:14.468Z,8.00
2022-11-10T06:19:41.491Z,8.10
2022-11-10T06:22:08.191Z,8.00
2022-11-10T06:24:34.800Z,7.90
2022-11-10T06:27:01.520Z,8.00
2022-11-10T06:29:28.152Z,8.20
2022-11-10T06:31:54.877Z,7.90
2022-11-10T06:34:21.611Z,8.00
2022-11-10T06:36:48.260Z,7.90
2022-11-10T06:39:14.920Z,8.10
2022-11-10T06:41:41.655Z,8.20
2022-11-10T06:44:08.311Z,8.50
2022-11-10T06:46:38.235Z,8.10
2022-11-10T06:49:08.923Z,8.50
2022-11-10T06:51:35.599Z,8.50
2022-11-10T06:54:02.304Z,8.60
2022-11-10T06:56:28.950Z,8.80
2022-11-10T06:58:55.647Z,8.60
2022-11-10T07:01:22.727Z,8.70
2022-11-10T07:04:17.572Z,8.70
2022-11-10T07:06:36.379Z,8.70
2022-11-10T07:09:03.208Z,8.90
2022-11-10T07:11:29.857Z,9.10
2022-11-10T07:13:56.568Z,9.00
2022-11-10T07:16:24.550Z,9.00
2022-11-10T07:18:51.388Z,9.10
2022-11-10T07:21:18.033Z,9.20
2022-11-10T07:23:44.657Z,9.00
2022-11-10T07:26:11.353Z,9.10
2022-11-10T07:28:37.997Z,9.20
2022-11-10T07:31:04.673Z,9.30
2022-11-10T07:33:31.303Z,9.20
2022-11-10T07:35:57.973Z,9.10
2022-11-10T07:38:24.862Z,8.90
2022-11-10T07:40:51.585Z,9.10
2022-11-10T07:43:18.312Z,9.40
2022-11-10T07:45:44.980Z,9.50
2022-11-10T07:48:11.634Z,9.50
2022-11-10T07:50:38.342Z,9.30
2022-11-10T07:53:05.017Z,9.60
2022-11-10T07:55:31.671Z,9.20
2022-11-10T07:57:58.299Z,9.10
2022-11-10T08:00:24.946Z,9.30
2022-11-10T08:02:51.573Z,9.50
2022-11-10T08:05:18.233Z,9.70
2022-11-10T08:07:44.906Z,9.90
2022-11-10T08:10:11.602Z,10.10
2022-11-10T08:12:38.272Z,10.20
2022-11-10T08:15:04.940Z,10.30
2022-11-10T08:17:31.715Z,10.50
2022-11-10T08:19:58.356Z,10.20
2022-11-10T08:22:25.020Z,10.30
2022-11-10T08:24:51.667Z,10.60
2022-11-10T08:27:18.351Z,10.10
2022-11-10T08:29:45.032Z,10.00
2022-11-10T08:32:11.714Z,9.90
2022-11-10T08:34:38.419Z,10.30
2022-11-10T08:37:05.097Z,10.60
2022-11-10T08:39:39.071Z,10.80
2022-11-10T08:42:06.134Z,10.60
2022-11-10T08:44:32.804Z,10.60
2022-11-10T08:46:59.874Z,10.20
2022-11-10T08:49:26.547Z,10.30
2022-11-10T08:51:53.559Z,10.20
2022-11-10T08:54:20.216Z,10.50
2022-11-10T08:56:46.877Z,10.50
2022-11-10T08:59:13.525Z,10.40
2022-11-10T09:01:40.193Z,10.70
2022-11-10T09:04:06.871Z,10.70
2022-11-10T09:06:33.641Z,10.70
2022-11-10T09:09:00.338Z,10.80
2022-11-10T09:11:27.004Z,10.80
2022-11-10T09:13:53.668Z,10.90
2022-11-10T09:16:20.341Z,10.90
2022-11-10T09:18:46.990Z,10.60
2022-11-10T09:21:13.628Z,10.50
2022-11-10T09:23:40.311Z,10.90
2022-11-10T09:26:06.955Z,11.10
2022-11-10T09:28:33.823Z,11.30
2022-11-10T09:31:00.508Z,11.40
2022-11-10T09:33:27.184Z,11.50
2022-11-10T09:35:53.827Z,11.50
2022-11-10T09:38:20.720Z,11.10
2022-11-10T09:40:47.630Z,11.30
2022-11-10T09:43:14.275Z,11.50
2022-11-10T09:45:40.926Z,11.40
2022-11-10T09:48:07.589Z,11.40
2022-11-10T09:50:34.201Z,11.50
2022-11-10T09:53:00.859Z,11.70
2022-11-10T09:55:27.497Z,11.70
2022-11-10T09:57:54.178Z,11.80
2022-11-10T10:00:20.898Z,11.70
2022-11-10T10:02:47.599Z,11.80
2022-11-10T10:05:14.269Z,11.90
2022-11-10T10:07:40.935Z,11.80
2022-11-10T10:10:07.629Z,11.90
2022-11-10T10:12:34.531Z,11.60
2022-11-10T10:15:03.384Z,11.60
2022-11-10T10:17:30.075Z,11.90
2022-11-10T10:19:56.793Z,12.00
2022-11-10T10:22:23.488Z,12.10
2022-11-10T10:24:50.211Z,12.20
2022-11-10T10:27:16.835Z,12.30
2022-11-10T10:29:43.731Z,12.30
2022-11-10T10:32:10.440Z,12.40
2022-11-10T10:34:37.097Z,12.40
2022-11-10T10:37:03.790Z,12.40
2022-11-10T10:39:34.488Z,12.30
2022-11-10T10:42:01.237Z,12.20
2022-11-10T10:44:27.930Z,12.20
2022-11-10T10:46:56.562Z,12.20
2022-11-10T10:49:31.212Z,12.20
2022-11-10T10:51:58.177Z,12.20
2022-11-10T10:54:24.898Z,12.20
2022-11-10T10:56:51.585Z,12.30
2022-11-10T10:59:18.325Z,12.30
2022-11-10T11:01:45.136Z,12.20
2022-11-10T11:04:11.812Z,12.20
2022-11-10T11:06:38.563Z,12.30
2022-11-10T11:09:05.280Z,12.40
2022-11-10T11:11:31.974Z,12.60
2022-11-10T11:13:58.862Z,12.50
2022-11-10T11:16:25.540Z,12.50
2022-11-10T11:18:52.345Z,12.60
2022-11-10T11:21:19.015Z,12.70
2022-11-10T11:23:45.731Z,12.80
2022-11-10T11:26:12.421Z,12.60
2022-11-10T11:28:39.274Z,12.80
2022-11-10T11:31:05.999Z,12.90
2022-11-10T11:33:32.701Z,13.00
2022-11-10T11:35:59.364Z,12.80
2022-11-10T11:38:26.246Z,12.90
2022-11-10T11:40:53.190Z,13.10
2022-11-10T11:43:19.860Z,13.10
2022-11-10T11:45:46.511Z,13.10
2022-11-10T11:48:13.174Z,13.00
2022-11-10T11:50:39.860Z,13.10
2022-11-10T11:53:06.512Z,13.20
2022-11-10T11:55:33.158Z,13.20
2022-11-10T11:57:59.902Z,13.30
2022-11-10T12:00:26.587Z,13.40
2022-11-10T12:02:53.434Z,13.40
2022-11-10T12:05:20.227Z,13.40
2022-11-10T12:07:47.743Z,13.50
2022-11-10T12:10:14.360Z,13.50
2022-11-10T12:12:41.087Z,13.50
2022-11-10T12:15:07.764Z,13.30
2022-11-10T12:17:34.481Z,13.30
2022-11-10T12:20:01.193Z,13.30
2022-11-10T12:22:27.940Z,13.40
2022-11-10T12:24:54.620Z,13.70
2022-11-10T12:27:21.314Z,13.40
2022-11-10T12:29:47.980Z,13.50
2022-11-10T12:32:14.699Z,13.60
2022-11-10T12:34:41.387Z,13.40
2022-11-10T12:37:08.098Z,13.40
2022-11-10T12:39:34.788Z,13.60
2022-11-10T12:42:01.481Z,13.60
2022-11-10T12:44:28.221Z,13.60
2022-11-10T12:46:54.897Z,13.60
2022-11-10T12:49:21.611Z,13.10
2022-11-10T12:51:48.605Z,13.20
2022-11-10T12:54:17.026Z,13.20
2022-11-10T12:56:44.313Z,13.10
2022-11-10T12:59:11.393Z,13.00
2022-11-10T13:01:38.400Z,13.00
2022-11-10T13:04:05.186Z,12.70
2022-11-10T13:06:32.300Z,12.80
2022-11-10T13:08:59.001Z,12.80
2022-11-10T13:11:25.670Z,13.10
2022-11-10T13:13:58.187Z,13.30
2022-11-10T13:16:26.088Z,13.50
2022-11-10T13:18:52.732Z,13.60
2022-11-10T13:21:19.368Z,13.30
2022-11-10T13:23:46.000Z,13.40
2022-11-10T13:26:12.659Z,13.40
2022-11-10T13:28:39.271Z,13.60
2022-11-10T13:31:05.915Z,13.90
2022-11-10T13:33:32.555Z,13.70
2022-11-10T13:35:59.412Z,13.90
2022-11-10T13:38:26.246Z,14.00
2022-11-10T13:40:52.897Z,14.10
2022-11-10T13:43:19.542Z,13.70
2022-11-10T13:45:46.186Z,13.70
2022-11-10T13:48:12.865Z,14.00
2022-11-10T13:50:39.547Z,14.00
2022-11-10T13:53:06.181Z,14.00
2022-11-10T13:55:32.828Z,13.90
2022-11-10T13:57:59.480Z,13.70
2022-11-10T14:00:26.169Z,14.00
2022-11-10T14:02:52.913Z,14.10
2022-11-10T14:05:19.628Z,14.10
2022-11-10T14:07:46.290Z,14.30
2022-11-10T14:10:12.937Z,14.20
2022-11-10T14:12:39.585Z,13.80
2022-11-10T14:15:06.216Z,13.80
2022-11-10T14:17:32.829Z,13.90
2022-11-10T14:19:59.483Z,13.80
2022-11-10T14:22:26.152Z,13.80
2022-11-10T14:24:52.851Z,14.00
2022-11-10T14:27:19.620Z,14.10
2022-11-10T14:29:46.268Z,14.20
2022-11-10T14:32:13.005Z,14.20
2022-11-10T14:34:39.641Z,14.20
2022-11-10T14:37:06.381Z,14.00
2022-11-10T14:39:33.012Z,13.80
2022-11-10T14:41:59.652Z,13.90
2022-11-10T14:44:26.305Z,14.00
2022-11-10T14:46:53.154Z,14.10
2022-11-10T14:49:19.879Z,14.10
2022-11-10T14:51:46.532Z,13.80
2022-11-10T14:54:13.209Z,13.70
2022-11-10T14:56:39.882Z,13.60
2022-11-10T14:59:06.540Z,13.70
2022-11-10T15:01:33.439Z,13.60
2022-11-10T15:04:00.430Z,13.40
2022-11-10T15:06:27.102Z,13.50
2022-11-10T15:08:53.823Z,13.50
2022-11-10T15:11:20.501Z,13.50
2022-11-10T15:13:47.286Z,13.50
2022-11-10T15:16:14.060Z,13.50
2022-11-10T15:18:41.093Z,13.50
2022-11-10T15:21:07.980Z,13.10
2022-11-10T15:23:34.844Z,13.00
2022-11-10T15:26:01.655Z,13.00
2022-11-10T15:28:28.335Z,13.00
2022-11-10T15:30:55.092Z,13.00
2022-11-10T15:33:22.112Z,13.00
2022-11-10T15:35:49.051Z,12.80
2022-11-10T15:38:20.728Z,12.50
2022-11-10T15:40:48.180Z,12.50
2022-11-10T15:43:14.967Z,12.50
2022-11-10T15:45:41.778Z,12.40
2022-11-10T15:48:08.839Z,12.30
2022-11-10T15:50:36.889Z,12.20
2022-11-10T15:53:04.016Z,12.20
2022-11-10T15:55:31.973Z,12.20
2022-11-10T15:57:58.896Z,12.20
2022-11-10T16:00:25.804Z,12.00
2022-11-10T16:02:52.983Z,11.80
2022-11-10T16:05:19.705Z,11.90
2022-11-10T16:07:46.475Z,11.90
2022-11-10T16:10:13.288Z,11.90
2022-11-10T16:12:40.321Z,11.80
2022-11-10T16:15:07.691Z,11.60
2022-11-10T16:17:34.859Z,11.50
2022-11-10T16:20:01.767Z,11.60
2022-11-10T16:22:28.589Z,11.50
2022-11-10T16:24:56.603Z,11.50
2022-11-10T16:27:23.341Z,11.40
2022-11-10T16:29:50.271Z,11.50
2022-11-10T16:32:17.061Z,11.30
2022-11-10T16:34:43.893Z,11.20
2022-11-10T16:37:10.805Z,11.20
2022-11-10T16:39:37.599Z,11.30
2022-11-10T16:42:04.553Z,11.20
2022-11-10T16:44:31.402Z,11.20
2022-11-10T16:46:58.200Z,10.80
2022-11-10T16:49:24.910Z,10.60
2022-11-10T16:51:51.543Z,10.70
2022-11-10T16:54:18.141Z,10.80
2022-11-10T16:56:44.873Z,10.70
2022-11-10T16:59:11.515Z,10.70
2022-11-10T17:01:38.226Z,10.70
2022-11-10T17:04:04.862Z,10.40
2022-11-10T17:06:31.657Z,10.20
2022-11-10T17:08:58.434Z,10.20
2022-11-10T17:11:25.082Z,9.80
2022-11-10T17:13:51.715Z,9.90
2022-11-10T17:16:18.380Z,10.10
2022-11-10T17:18:45.171Z,10.00
2022-11-10T17:21:11.810Z,10.00
2022-11-10T17:23:38.527Z,10.10
2022-11-10T17:26:05.216Z,10.10
2022-11-10T17:28:31.853Z,10.20
2022-11-10T17:30:58.505Z,10.10
2022-11-10T17:33:25.584Z,10.10
2022-11-10T17:35:52.552Z,10.10
2022-11-10T17:38:19.191Z,9.90
2022-11-10T17:40:45.806Z,9.80
2022-11-10T17:43:12.432Z,9.90
2022-11-10T17:45:39.111Z,10.00
2022-11-10T17:48:05.777Z,9.80
2022-11-10T17:50:32.408Z,9.70
2022-11-10T17:52:59.042Z,9.60
2022-11-10T17:55:29.768Z,9.70
2022-11-10T17:57:59.545Z,9.70
2022-11-10T18:00:26.215Z,9.70
2022-11-10T18:02:55.337Z,9.90
2022-11-10T18:05:22.163Z,9.90
2022-11-10T18:07:48.797Z,9.60
2022-11-10T18:10:15.456Z,9.30
2022-11-10T18:12:42.133Z,9.20
2022-11-10T18:15:08.772Z,9.40
2022-11-10T18:17:35.431Z,9.60
2022-11-10T18:20:02.072Z,9.60
2022-11-10T18:22:28.706Z,9.60
2022-11-10T18:24:55.376Z,9.70
2022-11-10T18:27:22.033Z,9.50
2022-11-10T18:29:48.721Z,9.40
2022-11-10T18:32:15.358Z,9.10
2022-11-10T18:34:41.981Z,8.90
2022-11-10T18:37:08.668Z,8.90
2022-11-10T18:39:35.313Z,9.10
2022-11-10T18:42:01.965Z,9.20
2022-11-10T18:44:28.604Z,9.30
2022-11-10T18:46:55.284Z,9.30
2022-11-10T18:49:21.968Z,9.30
2022-11-10T18:51:48.591Z,9.10
2022-11-10T18:54:15.270Z,9.20
2022-11-10T18:56:41.875Z,8.90
2022-11-10T18:59:08.524Z,8.80
2022-11-10T19:01:35.194Z,8.70
2022-11-10T19:04:01.959Z,8.70
2022-11-10T19:06:28.735Z,8.60
2022-11-10T19:08:55.367Z,8.70
2022-11-10T19:11:22.007Z,8.70
2022-11-10T19:13:48.649Z,8.90
2022-11-10T19:16:15.284Z,8.50
2022-11-10T19:18:41.951Z,7.80
2022-11-10T19:21:08.628Z,8.00
2022-11-10T19:23:35.337Z,8.10
2022-11-10T19:26:01.965Z,7.80
2022-11-10T19:28:28.704Z,8.10
2022-11-10T19:30:55.308Z,8.40
2022-11-10T19:33:22.212Z,8.60
2022-11-10T19:35:49.124Z,8.70
2022-11-10T19:38:15.890Z,8.80
2022-11-10T19:40:42.546Z,8.70
2022-11-10T19:43:09.192Z,8.70
2022-11-10T19:45:35.888Z,8.60
2022-11-10T19:48:02.595Z,8.60
2022-11-10T19:50:29.340Z,8.70
2022-11-10T19:52:56.084Z,8.40
2022-11-10T19:55:22.735Z,7.90
2022-11-10T19:57:49.482Z,7.70
2022-11-10T20:00:16.165Z,7.80
2022-11-10T20:02:45.527Z,7.90
2022-11-10T20:05:12.599Z,8.10
2022-11-10T20:07:39.345Z,8.40
2022-11-10T20:10:06.001Z,8.50
2022-11-10T20:12:32.647Z,8.50
2022-11-10T20:14:59.368Z,8.50
2022-11-10T20:17:26.019Z,8.50
2022-11-10T20:19:52.704Z,8.20
2022-11-10T20:22:19.363Z,8.10
2022-11-10T20:27:36.414Z,8.10
2022-11-10T20:30:03.160Z,8.00
2022-11-10T20:32:29.887Z,8.10
2022-11-10T20:34:57.579Z,8.20
2022-11-10T20:37:24.224Z,8.20
2022-11-10T20:39:50.853Z,8.30
2022-11-10T20:42:17.609Z,8.20
2022-11-10T20:44:46.249Z,8.10
2022-11-10T20:47:12.946Z,8.30
2022-11-10T20:49:39.640Z,7.70
2022-11-10T20:52:06.271Z,7.80
2022-11-10T20:54:33.535Z,7.80
2022-11-10T20:57:00.267Z,7.70
2022-11-10T20:59:26.921Z,7.90
2022-11-10T21:01:53.647Z,7.90
2022-11-10T21:04:20.385Z,7.70
2022-11-10T21:06:47.094Z,7.40
2022-11-10T21:09:13.811Z,7.50
2022-11-10T21:11:40.440Z,7.60
2022-11-10T21:14:07.065Z,7.90
2022-11-10T21:16:33.751Z,7.90
2022-11-10T21:19:00.379Z,8.10
2022-11-10T21:21:27.019Z,7.90
2022-11-10T21:23:53.715Z,7.90
2022-11-10T21:26:20.366Z,8.00
2022-11-10T21:28:47.176Z,7.90
2022-11-10T21:31:13.862Z,7.90
2022-11-10T21:33:40.586Z,7.90
2022-11-10T21:36:07.242Z,7.90
2022-11-10T21:38:34.064Z,7.50
2022-11-10T21:41:00.724Z,7.10
2022-11-10T21:43:27.412Z,7.10
2022-11-10T21:45:54.027Z,7.30
2022-11-10T21:48:20.678Z,7.50
2022-11-10T21:50:47.312Z,7.60
2022-11-10T21:53:14.175Z,7.60
2022-11-10T21:55:40.919Z,7.60
2022-11-10T21:58:07.583Z,7.50
2022-11-10T22:00:34.208Z,7.60
2022-11-10T22:03:00.866Z,7.50
2022-11-10T22:05:27.530Z,7.40
2022-11-10T22:07:54.169Z,7.50
2022-11-10T22:10:20.817Z,7.40
2022-11-10T22:12:47.452Z,7.40
2022-11-10T22:15:14.198Z,6.50
2022-11-10T22:17:40.850Z,6.80
2022-11-10T22:20:07.503Z,6.80
2022-11-10T22:22:34.137Z,6.80
2022-11-10T22:25:00.758Z,6.90
2022-11-10T22:27:27.437Z,7.10
2022-11-10T22:29:54.068Z,7.20
2022-11-10T22:32:20.718Z,7.30
2022-11-10T22:34:47.373Z,7.20
2022-11-10T22:37:14.038Z,7.00
2022-11-10T22:39:40.667Z,7.10
2022-11-10T22:42:07.300Z,7.20
2022-11-10T22:44:33.942Z,7.40
2022-11-10T22:47:00.692Z,7.30
2022-11-10T22:49:27.359Z,7.30
2022-11-10T22:51:54.040Z,7.10
2022-11-10T22:54:20.656Z,7.20
2022-11-10T22:56:47.314Z,7.20
2022-11-10T22:59:13.971Z,7.30
2022-11-10T23:01:40.628Z,7.30
2022-11-10T23:04:07.335Z,7.40
2022-11-10T23:06:34.086Z,7.40
2022-11-10T23:09:00.796Z,7.20
2022-11-10T23:11:27.429Z,7.20
2022-11-10T23:13:54.083Z,7.20
2022-11-10T23:16:20.765Z,7.10
2022-11-10T23:18:47.400Z,7.20
2022-11-10T23:21:14.054Z,7.10
2022-11-10T23:23:40.719Z,7.10
2022-11-10T23:26:07.372Z,7.10
2022-11-10T23:28:34.049Z,6.90
2022-11-10T23:31:00.723Z,6.80
2022-11-10T23:33:32.257Z,6.80
2022-11-10T23:35:59.565Z,6.90
2022-11-10T23:38:26.181Z,6.70
2022-11-10T23:40:53.030Z,6.80
2022-11-10T23:43:19.652Z,7.00
2022-11-10T23:46:05.814Z,7.00
2022-11-10T23:48:32.916Z,6.80
2022-11-10T23:50:59.554Z,6.70
2022-11-10T23:53:26.540Z,6.80
2022-11-10T23:55:53.323Z,6.80
2022-11-10T23:58:19.967Z,6.80
